sensor_id;sensor_type;location;lat;lon;timestamp;P1;P2;P0
70436;PMS5003;57877;39.750;-104.894;2023-06-01T00:02:25;0;0;
70436;PMS5003;57877;39.750;-104.894;2023-06-01T00:04:52;0;0;
70436;PMS5003;57877;39.750;-104.894;2023-06-01T00:07:17;0;0;
70436;PMS5003;57877;39.750;-104.894;2023-06-01T00:09:42;0;0;
70436;PMS5003;57877;39.750;-104.894;2023-06-01T00:12:07;0;0;
70436;PMS5003;57877;39.750;-104.894;2023-06-01T00:14:31;0;0;
70436;PMS5003;57877;39.750;-104.894;2023-06-01T00:16:56;1;1;
70436;PMS5003;57877;39.750;-104.894;2023-06-01T00:19:21;0;0;
70436;PMS5003;57877;39.750;-104.894;2023-06-01T00:21:46;0;0;
70436;PMS5003;57877;39.750;-104.894;2023-06-01T00:24:11;0;0;
70436;PMS5003;57877;39.750;-104.894;2023-06-01T00:26:36;0;0;
70436;PMS5003;57877;39.750;-104.894;2023-06-01T00:29:07;0;0;
70436;PMS5003;57877;39.750;-104.894;2023-06-01T00:31:26;0;0;
70436;PMS5003;57877;39.750;-104.894;2023-06-01T00:33:52;0;0;
70436;PMS5003;57877;39.750;-104.894;2023-06-01T00:36:17;1;0;
70436;PMS5003;57877;39.750;-104.894;2023-06-01T00:38:41;0;0;
70436;PMS5003;57877;39.750;-104.894;2023-06-01T00:41:07;0;0;
70436;PMS5003;57877;39.750;-104.894;2023-06-01T00:43:32;0;0;
70436;PMS5003;57877;39.750;-104.894;2023-06-01T00:45:56;0;0;
70436;PMS5003;57877;39.750;-104.894;2023-06-01T00:48:21;0;0;
70436;PMS5003;57877;39.750;-104.894;2023-06-01T00:50:47;0;0;
70436;PMS5003;57877;39.750;-104.894;2023-06-01T00:53:14;0;0;
70436;PMS5003;57877;39.750;-104.894;2023-06-01T00:55:37;0;0;
70436;PMS5003;57877;39.750;-104.894;2023-06-01T00:58:02;0;0;
70436;PMS5003;57877;39.750;-104.894;2023-06-01T01:00:27;0;0;
70436;PMS5003;57877;39.750;-104.894;2023-06-01T01:02:52;0;0;
70436;PMS5003;57877;39.750;-104.894;2023-06-01T01:05:17;0;0;
70436;PMS5003;57877;39.750;-104.894;2023-06-01T01:07:48;0;0;
70436;PMS5003;57877;39.750;-104.894;2023-06-01T01:10:09;0;0;
70436;PMS5003;57877;39.750;-104.894;2023-06-01T01:12:33;0;0;
70436;PMS5003;57877;39.750;-104.894;2023-06-01T01:14:59;0;0;
70436;PMS5003;57877;39.750;-104.894;2023-06-01T01:17:25;0;0;
70436;PMS5003;57877;39.750;-104.894;2023-06-01T01:19:52;0;0;
70436;PMS5003;57877;39.750;-104.894;2023-06-01T01:22:24;0;0;
70436;PMS5003;57877;39.750;-104.894;2023-06-01T01:24:42;0;0;
70436;PMS5003;57877;39.750;-104.894;2023-06-01T01:27:09;0;0;
70436;PMS5003;57877;39.750;-104.894;2023-06-01T01:29:30;0;0;
70436;PMS5003;57877;39.750;-104.894;2023-06-01T01:31:54;0;0;
70436;PMS5003;57877;39.750;-104.894;2023-06-01T01:34:20;0;0;
70436;PMS5003;57877;39.750;-104.894;2023-06-01T01:36:44;0;0;
70436;PMS5003;57877;39.750;-104.894;2023-06-01T01:39:09;0;0;
70436;PMS5003;57877;39.750;-104.894;2023-06-01T01:41:34;0;0;
70436;PMS5003;57877;39.750;-104.894;2023-06-01T01:43:59;0;0;
70436;PMS5003;57877;39.750;-104.894;2023-06-01T01:46:24;0;0;
70436;PMS5003;57877;39.750;-104.894;2023-06-01T01:48:52;0;0;
70436;PMS5003;57877;39.750;-104.894;2023-06-01T01:51:18;0;0;
70436;PMS5003;57877;39.750;-104.894;2023-06-01T01:53:42;0;0;
70436;PMS5003;57877;39.750;-104.894;2023-06-01T01:56:07;0;0;
70436;PMS5003;57877;39.750;-104.894;2023-06-01T01:58:33;0;0;
70436;PMS5003;57877;39.750;-104.894;2023-06-01T02:00:59;1;0;
70436;PMS5003;57877;39.750;-104.894;2023-06-01T02:03:25;0;0;
70436;PMS5003;57877;39.750;-104.894;2023-06-01T02:05:51;0;0;
70436;PMS5003;57877;39.750;-104.894;2023-06-01T02:08:17;0;0;
70436;PMS5003;57877;39.750;-104.894;2023-06-01T02:10:43;0;0;
70436;PMS5003;57877;39.750;-104.894;2023-06-01T02:13:08;0;0;
70436;PMS5003;57877;39.750;-104.894;2023-06-01T02:15:33;0;0;
70436;PMS5003;57877;39.750;-104.894;2023-06-01T02:17:58;0;0;
70436;PMS5003;57877;39.750;-104.894;2023-06-01T02:20:23;0;0;
70436;PMS5003;57877;39.750;-104.894;2023-06-01T02:22:48;0;0;
70436;PMS5003;57877;39.750;-104.894;2023-06-01T02:25:13;0;0;
70436;PMS5003;57877;39.750;-104.894;2023-06-01T02:27:39;0;0;
70436;PMS5003;57877;39.750;-104.894;2023-06-01T02:30:03;0;0;
70436;PMS5003;57877;39.750;-104.894;2023-06-01T02:32:28;0;0;
70436;PMS5003;57877;39.750;-104.894;2023-06-01T02:34:53;0;0;
70436;PMS5003;57877;39.750;-104.894;2023-06-01T02:37:19;0;0;
70436;PMS5003;57877;39.750;-104.894;2023-06-01T02:39:44;0;0;
70436;PMS5003;57877;39.750;-104.894;2023-06-01T02:42:09;0;0;
70436;PMS5003;57877;39.750;-104.894;2023-06-01T02:44:33;0;0;
70436;PMS5003;57877;39.750;-104.894;2023-06-01T02:47:03;0;0;
70436;PMS5003;57877;39.750;-104.894;2023-06-01T02:49:24;0;0;
70436;PMS5003;57877;39.750;-104.894;2023-06-01T02:51:48;0;0;
70436;PMS5003;57877;39.750;-104.894;2023-06-01T02:54:14;1;0;
70436;PMS5003;57877;39.750;-104.894;2023-06-01T02:56:40;0;0;
70436;PMS5003;57877;39.750;-104.894;2023-06-01T02:59:06;0;0;
70436;PMS5003;57877;39.750;-104.894;2023-06-01T03:01:29;0;0;
70436;PMS5003;57877;39.750;-104.894;2023-06-01T03:03:53;0;0;
70436;PMS5003;57877;39.750;-104.894;2023-06-01T03:06:20;0;0;
70436;PMS5003;57877;39.750;-104.894;2023-06-01T03:08:46;0;0;
70436;PMS5003;57877;39.750;-104.894;2023-06-01T03:11:12;0;0;
70436;PMS5003;57877;39.750;-104.894;2023-06-01T03:13:37;0;0;
70436;PMS5003;57877;39.750;-104.894;2023-06-01T03:16:04;0;0;
70436;PMS5003;57877;39.750;-104.894;2023-06-01T03:18:31;0;0;
70436;PMS5003;57877;39.750;-104.894;2023-06-01T03:20:56;0;0;
70436;PMS5003;57877;39.750;-104.894;2023-06-01T03:23:21;0;0;
70436;PMS5003;57877;39.750;-104.894;2023-06-01T03:25:48;0;0;
70436;PMS5003;57877;39.750;-104.894;2023-06-01T03:28:14;0;0;
70436;PMS5003;57877;39.750;-104.894;2023-06-01T03:30:40;0;0;
70436;PMS5003;57877;39.750;-104.894;2023-06-01T03:33:06;0;0;
70436;PMS5003;57877;39.750;-104.894;2023-06-01T03:35:31;0;0;
70436;PMS5003;57877;39.750;-104.894;2023-06-01T03:37:58;1;0;
70436;PMS5003;57877;39.750;-104.894;2023-06-01T03:40:26;0;0;
70436;PMS5003;57877;39.750;-104.894;2023-06-01T03:42:49;0;0;
70436;PMS5003;57877;39.750;-104.894;2023-06-01T03:45:16;0;0;
70436;PMS5003;57877;39.750;-104.894;2023-06-01T03:47:42;0;0;
70436;PMS5003;57877;39.750;-104.894;2023-06-01T03:50:08;0;0;
70436;PMS5003;57877;39.750;-104.894;2023-06-01T03:52:34;0;0;
70436;PMS5003;57877;39.750;-104.894;2023-06-01T03:55:02;0;0;
70436;PMS5003;57877;39.750;-104.894;2023-06-01T03:57:26;0;0;
70436;PMS5003;57877;39.750;-104.894;2023-06-01T03:59:51;0;0;
70436;PMS5003;57877;39.750;-104.894;2023-06-01T04:02:19;0;0;
70436;PMS5003;57877;39.750;-104.894;2023-06-01T04:04:43;0;0;
70436;PMS5003;57877;39.750;-104.894;2023-06-01T04:07:08;0;0;
70436;PMS5003;57877;39.750;-104.894;2023-06-01T04:09:32;0;0;
70436;PMS5003;57877;39.750;-104.894;2023-06-01T04:12:00;0;0;
70436;PMS5003;57877;39.750;-104.894;2023-06-01T04:14:24;0;0;
70436;PMS5003;57877;39.750;-104.894;2023-06-01T04:16:49;0;0;
70436;PMS5003;57877;39.750;-104.894;2023-06-01T04:19:14;0;0;
70436;PMS5003;57877;39.750;-104.894;2023-06-01T04:21:40;0;0;
70436;PMS5003;57877;39.750;-104.894;2023-06-01T04:24:05;0;0;
70436;PMS5003;57877;39.750;-104.894;2023-06-01T04:26:29;0;0;
70436;PMS5003;57877;39.750;-104.894;2023-06-01T04:28:57;0;0;
70436;PMS5003;57877;39.750;-104.894;2023-06-01T04:31:21;0;0;
70436;PMS5003;57877;39.750;-104.894;2023-06-01T04:33:46;0;0;
70436;PMS5003;57877;39.750;-104.894;2023-06-01T04:36:12;0;0;
70436;PMS5003;57877;39.750;-104.894;2023-06-01T04:38:36;0;0;
70436;PMS5003;57877;39.750;-104.894;2023-06-01T04:41:01;0;0;
70436;PMS5003;57877;39.750;-104.894;2023-06-01T04:43:26;0;0;
70436;PMS5003;57877;39.750;-104.894;2023-06-01T04:45:54;1;1;
70436;PMS5003;57877;39.750;-104.894;2023-06-01T04:48:18;0;0;
70436;PMS5003;57877;39.750;-104.894;2023-06-01T04:50:43;0;0;
70436;PMS5003;57877;39.750;-104.894;2023-06-01T04:53:10;0;0;
70436;PMS5003;57877;39.750;-104.894;2023-06-01T04:55:35;0;0;
70436;PMS5003;57877;39.750;-104.894;2023-06-01T04:57:59;0;0;
70436;PMS5003;57877;39.750;-104.894;2023-06-01T05:00:24;0;0;
70436;PMS5003;57877;39.750;-104.894;2023-06-01T05:02:49;0;0;
70436;PMS5003;57877;39.750;-104.894;2023-06-01T05:05:17;0;0;
70436;PMS5003;57877;39.750;-104.894;2023-06-01T05:07:41;0;0;
70436;PMS5003;57877;39.750;-104.894;2023-06-01T05:10:07;0;0;
70436;PMS5003;57877;39.750;-104.894;2023-06-01T05:12:31;0;0;
70436;PMS5003;57877;39.750;-104.894;2023-06-01T05:14:56;0;0;
70436;PMS5003;57877;39.750;-104.894;2023-06-01T05:17:21;0;0;
70436;PMS5003;57877;39.750;-104.894;2023-06-01T05:19:46;0;0;
70436;PMS5003;57877;39.750;-104.894;2023-06-01T05:22:12;0;0;
70436;PMS5003;57877;39.750;-104.894;2023-06-01T05:24:38;0;0;
70436;PMS5003;57877;39.750;-104.894;2023-06-01T05:27:03;0;0;
70436;PMS5003;57877;39.750;-104.894;2023-06-01T05:29:29;0;0;
70436;PMS5003;57877;39.750;-104.894;2023-06-01T05:31:54;0;0;
70436;PMS5003;57877;39.750;-104.894;2023-06-01T05:34:19;0;0;
70436;PMS5003;57877;39.750;-104.894;2023-06-01T05:36:44;0;0;
70436;PMS5003;57877;39.750;-104.894;2023-06-01T05:39:09;1;0;
70436;PMS5003;57877;39.750;-104.894;2023-06-01T05:41:34;1;1;
70436;PMS5003;57877;39.750;-104.894;2023-06-01T05:43:59;0;0;
70436;PMS5003;57877;39.750;-104.894;2023-06-01T05:46:24;0;0;
70436;PMS5003;57877;39.750;-104.894;2023-06-01T05:48:49;0;0;
70436;PMS5003;57877;39.750;-104.894;2023-06-01T05:51:14;0;0;
70436;PMS5003;57877;39.750;-104.894;2023-06-01T05:53:39;1;0;
70436;PMS5003;57877;39.750;-104.894;2023-06-01T05:56:04;0;0;
70436;PMS5003;57877;39.750;-104.894;2023-06-01T05:58:30;0;0;
70436;PMS5003;57877;39.750;-104.894;2023-06-01T06:00:54;0;0;
70436;PMS5003;57877;39.750;-104.894;2023-06-01T06:03:20;0;0;
70436;PMS5003;57877;39.750;-104.894;2023-06-01T06:05:44;0;0;
70436;PMS5003;57877;39.750;-104.894;2023-06-01T06:08:09;1;0;
70436;PMS5003;57877;39.750;-104.894;2023-06-01T06:10:34;0;0;
70436;PMS5003;57877;39.750;-104.894;2023-06-01T06:12:59;0;0;
70436;PMS5003;57877;39.750;-104.894;2023-06-01T06:15:25;0;0;
70436;PMS5003;57877;39.750;-104.894;2023-06-01T06:17:51;0;0;
70436;PMS5003;57877;39.750;-104.894;2023-06-01T06:20:17;0;0;
70436;PMS5003;57877;39.750;-104.894;2023-06-01T06:22:41;0;0;
70436;PMS5003;57877;39.750;-104.894;2023-06-01T06:25:06;0;0;
70436;PMS5003;57877;39.750;-104.894;2023-06-01T06:27:31;0;0;
70436;PMS5003;57877;39.750;-104.894;2023-06-01T06:29:56;0;0;
70436;PMS5003;57877;39.750;-104.894;2023-06-01T06:32:21;0;0;
70436;PMS5003;57877;39.750;-104.894;2023-06-01T06:34:47;0;0;
70436;PMS5003;57877;39.750;-104.894;2023-06-01T06:37:12;0;0;
70436;PMS5003;57877;39.750;-104.894;2023-06-01T06:39:38;0;0;
70436;PMS5003;57877;39.750;-104.894;2023-06-01T06:42:03;0;0;
70436;PMS5003;57877;39.750;-104.894;2023-06-01T06:44:28;0;0;
70436;PMS5003;57877;39.750;-104.894;2023-06-01T06:46:53;0;0;
70436;PMS5003;57877;39.750;-104.894;2023-06-01T06:49:17;0;0;
70436;PMS5003;57877;39.750;-104.894;2023-06-01T06:51:43;1;0;
70436;PMS5003;57877;39.750;-104.894;2023-06-01T06:54:12;0;0;
70436;PMS5003;57877;39.750;-104.894;2023-06-01T06:56:34;0;0;
70436;PMS5003;57877;39.750;-104.894;2023-06-01T06:58:59;1;0;
70436;PMS5003;57877;39.750;-104.894;2023-06-01T07:01:25;1;1;
70436;PMS5003;57877;39.750;-104.894;2023-06-01T07:03:49;0;0;
70436;PMS5003;57877;39.750;-104.894;2023-06-01T07:06:16;1;1;
70436;PMS5003;57877;39.750;-104.894;2023-06-01T07:08:42;1;1;
70436;PMS5003;57877;39.750;-104.894;2023-06-01T07:11:07;0;0;
70436;PMS5003;57877;39.750;-104.894;2023-06-01T07:13:32;0;0;
70436;PMS5003;57877;39.750;-104.894;2023-06-01T07:15:58;0;0;
70436;PMS5003;57877;39.750;-104.894;2023-06-01T07:18:22;1;0;
70436;PMS5003;57877;39.750;-104.894;2023-06-01T07:20:47;0;0;
70436;PMS5003;57877;39.750;-104.894;2023-06-01T07:23:14;0;0;
70436;PMS5003;57877;39.750;-104.894;2023-06-01T07:25:37;0;0;
70436;PMS5003;57877;39.750;-104.894;2023-06-01T07:28:03;1;1;
70436;PMS5003;57877;39.750;-104.894;2023-06-01T07:30:29;0;0;
70436;PMS5003;57877;39.750;-104.894;2023-06-01T07:32:54;0;0;
70436;PMS5003;57877;39.750;-104.894;2023-06-01T07:35:20;0;0;
70436;PMS5003;57877;39.750;-104.894;2023-06-01T07:37:45;0;0;
70436;PMS5003;57877;39.750;-104.894;2023-06-01T07:40:11;0;0;
70436;PMS5003;57877;39.750;-104.894;2023-06-01T07:42:35;1;1;
70436;PMS5003;57877;39.750;-104.894;2023-06-01T07:45:00;0;0;
70436;PMS5003;57877;39.750;-104.894;2023-06-01T07:47:26;0;0;
70436;PMS5003;57877;39.750;-104.894;2023-06-01T07:49:51;0;0;
70436;PMS5003;57877;39.750;-104.894;2023-06-01T07:52:21;0;0;
70436;PMS5003;57877;39.750;-104.894;2023-06-01T07:54:41;0;0;
70436;PMS5003;57877;39.750;-104.894;2023-06-01T07:57:06;0;0;
70436;PMS5003;57877;39.750;-104.894;2023-06-01T07:59:32;0;0;
70436;PMS5003;57877;39.750;-104.894;2023-06-01T08:01:57;0;0;
70436;PMS5003;57877;39.750;-104.894;2023-06-01T08:04:21;0;0;
70436;PMS5003;57877;39.750;-104.894;2023-06-01T08:06:46;0;0;
70436;PMS5003;57877;39.750;-104.894;2023-06-01T08:09:11;0;0;
70436;PMS5003;57877;39.750;-104.894;2023-06-01T08:11:37;0;0;
70436;PMS5003;57877;39.750;-104.894;2023-06-01T08:14:01;0;0;
70436;PMS5003;57877;39.750;-104.894;2023-06-01T08:16:26;0;0;
70436;PMS5003;57877;39.750;-104.894;2023-06-01T08:18:51;0;0;
70436;PMS5003;57877;39.750;-104.894;2023-06-01T08:21:17;0;0;
70436;PMS5003;57877;39.750;-104.894;2023-06-01T08:23:42;0;0;
70436;PMS5003;57877;39.750;-104.894;2023-06-01T08:26:06;0;0;
70436;PMS5003;57877;39.750;-104.894;2023-06-01T08:28:31;0;0;
70436;PMS5003;57877;39.750;-104.894;2023-06-01T08:30:56;1;0;
70436;PMS5003;57877;39.750;-104.894;2023-06-01T08:33:21;0;0;
70436;PMS5003;57877;39.750;-104.894;2023-06-01T08:35:46;1;0;
70436;PMS5003;57877;39.750;-104.894;2023-06-01T08:38:12;0;0;
70436;PMS5003;57877;39.750;-104.894;2023-06-01T08:40:37;1;1;
70436;PMS5003;57877;39.750;-104.894;2023-06-01T08:43:04;0;0;
70436;PMS5003;57877;39.750;-104.894;2023-06-01T08:45:27;0;0;
70436;PMS5003;57877;39.750;-104.894;2023-06-01T08:47:53;1;0;
70436;PMS5003;57877;39.750;-104.894;2023-06-01T08:50:22;0;0;
70436;PMS5003;57877;39.750;-104.894;2023-06-01T08:52:43;0;0;
70436;PMS5003;57877;39.750;-104.894;2023-06-01T08:55:07;0;0;
70436;PMS5003;57877;39.750;-104.894;2023-06-01T08:57:33;0;0;
70436;PMS5003;57877;39.750;-104.894;2023-06-01T08:59:58;1;1;
70436;PMS5003;57877;39.750;-104.894;2023-06-01T09:02:23;1;1;
70436;PMS5003;57877;39.750;-104.894;2023-06-01T09:04:48;0;0;
70436;PMS5003;57877;39.750;-104.894;2023-06-01T09:07:13;0;0;
70436;PMS5003;57877;39.750;-104.894;2023-06-01T09:09:38;0;0;
70436;PMS5003;57877;39.750;-104.894;2023-06-01T09:14:30;0;0;
70436;PMS5003;57877;39.750;-104.894;2023-06-01T09:16:53;0;0;
70436;PMS5003;57877;39.750;-104.894;2023-06-01T09:19:18;0;0;
70436;PMS5003;57877;39.750;-104.894;2023-06-01T09:26:33;0;0;
70436;PMS5003;57877;39.750;-104.894;2023-06-01T09:28:58;0;0;
70436;PMS5003;57877;39.750;-104.894;2023-06-01T09:36:16;0;0;
70436;PMS5003;57877;39.750;-104.894;2023-06-01T09:38:39;0;0;
70436;PMS5003;57877;39.750;-104.894;2023-06-01T09:41:04;2;2;
70436;PMS5003;57877;39.750;-104.894;2023-06-01T09:43:29;0;0;
70436;PMS5003;57877;39.750;-104.894;2023-06-01T09:48:19;1;0;
70436;PMS5003;57877;39.750;-104.894;2023-06-01T09:50:44;1;0;
70436;PMS5003;57877;39.750;-104.894;2023-06-01T09:53:09;1;1;
70436;PMS5003;57877;39.750;-104.894;2023-06-01T09:55:34;0;0;
70436;PMS5003;57877;39.750;-104.894;2023-06-01T10:00:24;0;0;
70436;PMS5003;57877;39.750;-104.894;2023-06-01T10:02:49;0;0;
70436;PMS5003;57877;39.750;-104.894;2023-06-01T10:05:15;1;1;
70436;PMS5003;57877;39.750;-104.894;2023-06-01T10:07:40;0;0;
70436;PMS5003;57877;39.750;-104.894;2023-06-01T10:10:05;2;2;
70436;PMS5003;57877;39.750;-104.894;2023-06-01T10:12:30;1;1;
70436;PMS5003;57877;39.750;-104.894;2023-06-01T10:14:55;1;1;
70436;PMS5003;57877;39.750;-104.894;2023-06-01T10:17:20;2;2;
70436;PMS5003;57877;39.750;-104.894;2023-06-01T10:19:45;2;2;
70436;PMS5003;57877;39.750;-104.894;2023-06-01T10:22:10;2;1;
70436;PMS5003;57877;39.750;-104.894;2023-06-01T10:24:37;2;1;
70436;PMS5003;57877;39.750;-104.894;2023-06-01T10:27:04;0;0;
70436;PMS5003;57877;39.750;-104.894;2023-06-01T10:29:25;1;0;
70436;PMS5003;57877;39.750;-104.894;2023-06-01T10:31:50;2;2;
70436;PMS5003;57877;39.750;-104.894;2023-06-01T10:34:16;2;2;
70436;PMS5003;57877;39.750;-104.894;2023-06-01T10:41:31;1;1;
70436;PMS5003;57877;39.750;-104.894;2023-06-01T10:43:55;1;1;
70436;PMS5003;57877;39.750;-104.894;2023-06-01T10:53:38;1;1;
70436;PMS5003;57877;39.750;-104.894;2023-06-01T10:58:28;3;3;
70436;PMS5003;57877;39.750;-104.894;2023-06-01T11:00:54;3;3;
70436;PMS5003;57877;39.750;-104.894;2023-06-01T11:05:46;3;3;
70436;PMS5003;57877;39.750;-104.894;2023-06-01T11:15:27;4;4;
70436;PMS5003;57877;39.750;-104.894;2023-06-01T11:17:53;5;5;
70436;PMS5003;57877;39.750;-104.894;2023-06-01T11:20:17;7;7;
70436;PMS5003;57877;39.750;-104.894;2023-06-01T11:22:43;8;8;
70436;PMS5003;57877;39.750;-104.894;2023-06-01T11:25:08;4;4;
70436;PMS5003;57877;39.750;-104.894;2023-06-01T11:27:33;7;7;
70436;PMS5003;57877;39.750;-104.894;2023-06-01T11:29:58;5;5;
70436;PMS5003;57877;39.750;-104.894;2023-06-01T11:32:23;5;5;
70436;PMS5003;57877;39.750;-104.894;2023-06-01T11:34:49;5;5;
70436;PMS5003;57877;39.750;-104.894;2023-06-01T11:37:13;5;5;
70436;PMS5003;57877;39.750;-104.894;2023-06-01T11:39:38;7;7;
70436;PMS5003;57877;39.750;-104.894;2023-06-01T11:42:04;6;6;
70436;PMS5003;57877;39.750;-104.894;2023-06-01T11:44:29;6;6;
70436;PMS5003;57877;39.750;-104.894;2023-06-01T11:46:55;5;5;
70436;PMS5003;57877;39.750;-104.894;2023-06-01T11:49:21;7;7;
70436;PMS5003;57877;39.750;-104.894;2023-06-01T11:51:45;7;7;
70436;PMS5003;57877;39.750;-104.894;2023-06-01T11:54:15;5;5;
70436;PMS5003;57877;39.750;-104.894;2023-06-01T11:56:35;6;6;
70436;PMS5003;57877;39.750;-104.894;2023-06-01T11:59:01;6;6;
70436;PMS5003;57877;39.750;-104.894;2023-06-01T12:01:25;7;6;
70436;PMS5003;57877;39.750;-104.894;2023-06-01T12:03:50;6;5;
70436;PMS5003;57877;39.750;-104.894;2023-06-01T12:06:18;6;6;
70436;PMS5003;57877;39.750;-104.894;2023-06-01T12:08:40;6;5;
70436;PMS5003;57877;39.750;-104.894;2023-06-01T12:11:05;5;5;
70436;PMS5003;57877;39.750;-104.894;2023-06-01T12:13:31;8;8;
70436;PMS5003;57877;39.750;-104.894;2023-06-01T12:15:56;9;9;
70436;PMS5003;57877;39.750;-104.894;2023-06-01T12:20:47;6;6;
70436;PMS5003;57877;39.750;-104.894;2023-06-01T12:23:14;7;7;
70436;PMS5003;57877;39.750;-104.894;2023-06-01T12:28:03;7;6;
70436;PMS5003;57877;39.750;-104.894;2023-06-01T12:30:27;7;7;
70436;PMS5003;57877;39.750;-104.894;2023-06-01T12:32:52;7;7;
70436;PMS5003;57877;39.750;-104.894;2023-06-01T12:35:21;11;11;
70436;PMS5003;57877;39.750;-104.894;2023-06-01T12:37:42;9;9;
70436;PMS5003;57877;39.750;-104.894;2023-06-01T12:40:08;8;8;
70436;PMS5003;57877;39.750;-104.894;2023-06-01T12:42:34;8;6;
70436;PMS5003;57877;39.750;-104.894;2023-06-01T12:44:57;5;5;
70436;PMS5003;57877;39.750;-104.894;2023-06-01T12:47:22;8;8;
70436;PMS5003;57877;39.750;-104.894;2023-06-01T12:52:15;7;7;
70436;PMS5003;57877;39.750;-104.894;2023-06-01T12:54:40;8;7;
70436;PMS5003;57877;39.750;-104.894;2023-06-01T12:57:11;8;7;
70436;PMS5003;57877;39.750;-104.894;2023-06-01T12:59:31;9;9;
70436;PMS5003;57877;39.750;-104.894;2023-06-01T13:01:58;8;8;
70436;PMS5003;57877;39.750;-104.894;2023-06-01T13:04:23;9;9;
70436;PMS5003;57877;39.750;-104.894;2023-06-01T13:06:48;8;7;
70436;PMS5003;57877;39.750;-104.894;2023-06-01T13:09:15;8;6;
70436;PMS5003;57877;39.750;-104.894;2023-06-01T13:11:41;8;8;
70436;PMS5003;57877;39.750;-104.894;2023-06-01T13:14:06;8;8;
70436;PMS5003;57877;39.750;-104.894;2023-06-01T13:16:31;10;9;
70436;PMS5003;57877;39.750;-104.894;2023-06-01T13:18:57;9;9;
70436;PMS5003;57877;39.750;-104.894;2023-06-01T13:21:23;10;10;
70436;PMS5003;57877;39.750;-104.894;2023-06-01T13:23:49;8;8;
70436;PMS5003;57877;39.750;-104.894;2023-06-01T13:26:24;10;10;
70436;PMS5003;57877;39.750;-104.894;2023-06-01T13:28:41;10;9;
70436;PMS5003;57877;39.750;-104.894;2023-06-01T13:31:07;8;7;
70436;PMS5003;57877;39.750;-104.894;2023-06-01T13:33:34;9;9;
70436;PMS5003;57877;39.750;-104.894;2023-06-01T13:35:59;11;11;
70436;PMS5003;57877;39.750;-104.894;2023-06-01T13:38:24;10;9;
70436;PMS5003;57877;39.750;-104.894;2023-06-01T13:40:49;9;8;
70436;PMS5003;57877;39.750;-104.894;2023-06-01T13:43:14;10;8;
70436;PMS5003;57877;39.750;-104.894;2023-06-01T13:45:39;8;8;
70436;PMS5003;57877;39.750;-104.894;2023-06-01T13:48:04;10;8;
70436;PMS5003;57877;39.750;-104.894;2023-06-01T13:50:31;7;7;
70436;PMS5003;57877;39.750;-104.894;2023-06-01T13:52:56;12;11;
70436;PMS5003;57877;39.750;-104.894;2023-06-01T13:55:21;13;12;
70436;PMS5003;57877;39.750;-104.894;2023-06-01T13:57:47;14;13;
70436;PMS5003;57877;39.750;-104.894;2023-06-01T14:00:13;11;11;
70436;PMS5003;57877;39.750;-104.894;2023-06-01T14:02:40;8;7;
70436;PMS5003;57877;39.750;-104.894;2023-06-01T14:05:04;12;12;
70436;PMS5003;57877;39.750;-104.894;2023-06-01T14:07:30;13;12;
70436;PMS5003;57877;39.750;-104.894;2023-06-01T14:09:54;11;9;
70436;PMS5003;57877;39.750;-104.894;2023-06-01T14:12:20;9;9;
70436;PMS5003;57877;39.750;-104.894;2023-06-01T14:14:45;10;10;
70436;PMS5003;57877;39.750;-104.894;2023-06-01T14:17:10;9;9;
70436;PMS5003;57877;39.750;-104.894;2023-06-01T14:19:37;12;12;
70436;PMS5003;57877;39.750;-104.894;2023-06-01T14:22:07;11;10;
70436;PMS5003;57877;39.750;-104.894;2023-06-01T14:24:30;9;9;
70436;PMS5003;57877;39.750;-104.894;2023-06-01T14:26:56;12;10;
70436;PMS5003;57877;39.750;-104.894;2023-06-01T14:29:19;11;10;
70436;PMS5003;57877;39.750;-104.894;2023-06-01T14:31:44;11;11;
70436;PMS5003;57877;39.750;-104.894;2023-06-01T14:34:11;10;10;
70436;PMS5003;57877;39.750;-104.894;2023-06-01T14:36:36;10;9;
70436;PMS5003;57877;39.750;-104.894;2023-06-01T14:39:03;13;12;
70436;PMS5003;57877;39.750;-104.894;2023-06-01T14:41:29;8;8;
70436;PMS5003;57877;39.750;-104.894;2023-06-01T14:43:54;11;8;
70436;PMS5003;57877;39.750;-104.894;2023-06-01T14:46:19;11;11;
70436;PMS5003;57877;39.750;-104.894;2023-06-01T14:48:44;6;6;
70436;PMS5003;57877;39.750;-104.894;2023-06-01T14:51:10;7;7;
70436;PMS5003;57877;39.750;-104.894;2023-06-01T14:53:34;8;8;
70436;PMS5003;57877;39.750;-104.894;2023-06-01T14:56:00;6;6;
70436;PMS5003;57877;39.750;-104.894;2023-06-01T14:58:24;10;10;
70436;PMS5003;57877;39.750;-104.894;2023-06-01T15:00:50;8;8;
70436;PMS5003;57877;39.750;-104.894;2023-06-01T15:03:14;7;7;
70436;PMS5003;57877;39.750;-104.894;2023-06-01T15:05:40;5;5;
70436;PMS5003;57877;39.750;-104.894;2023-06-01T15:08:05;4;4;
70436;PMS5003;57877;39.750;-104.894;2023-06-01T15:10:29;6;5;
70436;PMS5003;57877;39.750;-104.894;2023-06-01T15:12:54;6;6;
70436;PMS5003;57877;39.750;-104.894;2023-06-01T15:15:20;6;6;
70436;PMS5003;57877;39.750;-104.894;2023-06-01T15:17:44;5;5;
70436;PMS5003;57877;39.750;-104.894;2023-06-01T15:20:10;6;6;
70436;PMS5003;57877;39.750;-104.894;2023-06-01T15:22:35;7;7;
70436;PMS5003;57877;39.750;-104.894;2023-06-01T15:25:00;6;5;
70436;PMS5003;57877;39.750;-104.894;2023-06-01T15:27:25;5;4;
70436;PMS5003;57877;39.750;-104.894;2023-06-01T15:29:50;7;7;
70436;PMS5003;57877;39.750;-104.894;2023-06-01T15:32:15;6;5;
70436;PMS5003;57877;39.750;-104.894;2023-06-01T15:34:40;6;6;
70436;PMS5003;57877;39.750;-104.894;2023-06-01T15:37:06;6;6;
70436;PMS5003;57877;39.750;-104.894;2023-06-01T15:39:30;7;7;
70436;PMS5003;57877;39.750;-104.894;2023-06-01T15:41:55;5;5;
70436;PMS5003;57877;39.750;-104.894;2023-06-01T15:44:21;5;5;
70436;PMS5003;57877;39.750;-104.894;2023-06-01T15:46:47;4;4;
70436;PMS5003;57877;39.750;-104.894;2023-06-01T15:49:14;6;6;
70436;PMS5003;57877;39.750;-104.894;2023-06-01T15:51:39;6;6;
70436;PMS5003;57877;39.750;-104.894;2023-06-01T15:54:05;5;5;
70436;PMS5003;57877;39.750;-104.894;2023-06-01T15:56:31;6;6;
70436;PMS5003;57877;39.750;-104.894;2023-06-01T15:58:56;7;7;
70436;PMS5003;57877;39.750;-104.894;2023-06-01T16:01:21;6;6;
70436;PMS5003;57877;39.750;-104.894;2023-06-01T16:03:47;6;6;
70436;PMS5003;57877;39.750;-104.894;2023-06-01T16:06:12;5;5;
70436;PMS5003;57877;39.750;-104.894;2023-06-01T16:08:37;5;5;
70436;PMS5003;57877;39.750;-104.894;2023-06-01T16:11:02;5;5;
70436;PMS5003;57877;39.750;-104.894;2023-06-01T16:13:28;5;4;
70436;PMS5003;57877;39.750;-104.894;2023-06-01T16:15:54;7;7;
70436;PMS5003;57877;39.750;-104.894;2023-06-01T16:18:19;5;5;
70436;PMS5003;57877;39.750;-104.894;2023-06-01T16:20:45;3;2;
70436;PMS5003;57877;39.750;-104.894;2023-06-01T16:23:11;5;5;
70436;PMS5003;57877;39.750;-104.894;2023-06-01T16:25:35;5;5;
70436;PMS5003;57877;39.750;-104.894;2023-06-01T16:28:01;3;3;
70436;PMS5003;57877;39.750;-104.894;2023-06-01T16:30:28;4;4;
70436;PMS5003;57877;39.750;-104.894;2023-06-01T16:32:54;2;2;
70436;PMS5003;57877;39.750;-104.894;2023-06-01T16:35:20;2;2;